sensor_id;sensor_type;location;lat;lon;timestamp;temperature;humidity
43143;DHT22;28750;59.842;17.584;2023-09-07T00:01:35;10.40;99.90
43143;DHT22;28750;59.842;17.584;2023-09-07T00:04:02;10.30;99.90
43143;DHT22;28750;59.842;17.584;2023-09-07T00:06:30;10.30;99.90
43143;DHT22;28750;59.842;17.584;2023-09-07T00:08:57;10.10;99.90
43143;DHT22;28750;59.842;17.584;2023-09-07T00:11:24;10.10;99.90
43143;DHT22;28750;59.842;17.584;2023-09-07T00:13:51;10.00;99.90
43143;DHT22;28750;59.842;17.584;2023-09-07T00:16:18;9.90;99.90
43143;DHT22;28750;59.842;17.584;2023-09-07T00:18:46;9.90;99.90
43143;DHT22;28750;59.842;17.584;2023-09-07T00:21:13;9.90;99.90
43143;DHT22;28750;59.842;17.584;2023-09-07T00:23:40;10.10;99.90
43143;DHT22;28750;59.842;17.584;2023-09-07T00:26:07;10.00;99.90
43143;DHT22;28750;59.842;17.584;2023-09-07T00:28:36;9.90;99.90
43143;DHT22;28750;59.842;17.584;2023-09-07T00:31:03;10.00;99.90
43143;DHT22;28750;59.842;17.584;2023-09-07T00:33:30;10.00;99.90
43143;DHT22;28750;59.842;17.584;2023-09-07T00:35:57;10.00;99.90
43143;DHT22;28750;59.842;17.584;2023-09-07T00:38:24;10.00;99.90
43143;DHT22;28750;59.842;17.584;2023-09-07T00:40:51;10.00;99.90
43143;DHT22;28750;59.842;17.584;2023-09-07T00:43:18;10.00;99.90
43143;DHT22;28750;59.842;17.584;2023-09-07T00:45:46;9.90;99.90
43143;DHT22;28750;59.842;17.584;2023-09-07T00:48:14;9.90;99.90
43143;DHT22;28750;59.842;17.584;2023-09-07T00:50:43;10.00;99.90
43143;DHT22;28750;59.842;17.584;2023-09-07T00:53:11;9.90;99.90
43143;DHT22;28750;59.842;17.584;2023-09-07T00:55:38;10.00;99.90
43143;DHT22;28750;59.842;17.584;2023-09-07T00:58:05;9.90;99.90
43143;DHT22;28750;59.842;17.584;2023-09-07T01:00:34;9.90;99.90
43143;DHT22;28750;59.842;17.584;2023-09-07T01:03:01;9.90;99.90
43143;DHT22;28750;59.842;17.584;2023-09-07T01:05:51;9.80;99.90
43143;DHT22;28750;59.842;17.584;2023-09-07T01:08:24;9.80;99.90
43143;DHT22;28750;59.842;17.584;2023-09-07T01:10:53;9.90;99.90
43143;DHT22;28750;59.842;17.584;2023-09-07T01:13:20;9.90;99.90
43143;DHT22;28750;59.842;17.584;2023-09-07T01:15:48;10.00;99.90
43143;DHT22;28750;59.842;17.584;2023-09-07T01:18:15;10.00;99.90
43143;DHT22;28750;59.842;17.584;2023-09-07T01:20:45;10.00;99.90
43143;DHT22;28750;59.842;17.584;2023-09-07T01:23:14;9.90;99.90
43143;DHT22;28750;59.842;17.584;2023-09-07T01:25:42;10.00;99.90
43143;DHT22;28750;59.842;17.584;2023-09-07T01:28:09;10.00;99.90
43143;DHT22;28750;59.842;17.584;2023-09-07T01:30:36;10.00;99.90
43143;DHT22;28750;59.842;17.584;2023-09-07T01:33:04;9.90;99.90
43143;DHT22;28750;59.842;17.584;2023-09-07T01:35:32;9.80;99.90
43143;DHT22;28750;59.842;17.584;2023-09-07T01:38:00;9.80;99.90
43143;DHT22;28750;59.842;17.584;2023-09-07T01:40:28;9.80;99.90
43143;DHT22;28750;59.842;17.584;2023-09-07T01:42:55;9.70;99.90
43143;DHT22;28750;59.842;17.584;2023-09-07T01:45:22;9.80;99.90
43143;DHT22;28750;59.842;17.584;2023-09-07T01:47:50;9.80;99.90
43143;DHT22;28750;59.842;17.584;2023-09-07T01:50:18;9.80;99.90
43143;DHT22;28750;59.842;17.584;2023-09-07T01:52:48;9.80;99.90
43143;DHT22;28750;59.842;17.584;2023-09-07T01:55:15;9.80;99.90
43143;DHT22;28750;59.842;17.584;2023-09-07T01:57:43;9.80;99.90
43143;DHT22;28750;59.842;17.584;2023-09-07T02:00:11;9.70;99.90
43143;DHT22;28750;59.842;17.584;2023-09-07T02:02:39;9.60;99.90
43143;DHT22;28750;59.842;17.584;2023-09-07T02:05:06;9.60;99.90
43143;DHT22;28750;59.842;17.584;2023-09-07T02:07:33;9.80;99.90
43143;DHT22;28750;59.842;17.584;2023-09-07T02:10:02;9.80;99.90
43143;DHT22;28750;59.842;17.584;2023-09-07T02:12:30;9.70;99.90
43143;DHT22;28750;59.842;17.584;2023-09-07T02:15:00;9.80;99.90
43143;DHT22;28750;59.842;17.584;2023-09-07T02:17:28;9.70;99.90
43143;DHT22;28750;59.842;17.584;2023-09-07T02:19:56;9.80;99.90
43143;DHT22;28750;59.842;17.584;2023-09-07T02:22:23;9.80;99.90
43143;DHT22;28750;59.842;17.584;2023-09-07T02:24:50;9.80;99.90
43143;DHT22;28750;59.842;17.584;2023-09-07T02:27:17;9.80;99.90
43143;DHT22;28750;59.842;17.584;2023-09-07T02:29:45;9.80;99.90
43143;DHT22;28750;59.842;17.584;2023-09-07T02:32:12;9.80;99.90
43143;DHT22;28750;59.842;17.584;2023-09-07T02:34:39;9.80;99.90
43143;DHT22;28750;59.842;17.584;2023-09-07T02:37:06;9.70;99.90
43143;DHT22;28750;59.842;17.584;2023-09-07T02:39:33;9.70;99.90
43143;DHT22;28750;59.842;17.584;2023-09-07T02:42:00;9.70;99.90
43143;DHT22;28750;59.842;17.584;2023-09-07T02:44:27;9.60;99.90
43143;DHT22;28750;59.842;17.584;2023-09-07T02:46:54;9.80;99.90
43143;DHT22;28750;59.842;17.584;2023-09-07T02:49:22;9.80;99.90
43143;DHT22;28750;59.842;17.584;2023-09-07T02:51:49;9.80;99.90
43143;DHT22;28750;59.842;17.584;2023-09-07T02:54:16;9.80;99.90
43143;DHT22;28750;59.842;17.584;2023-09-07T02:56:43;9.70;99.90
43143;DHT22;28750;59.842;17.584;2023-09-07T02:59:10;9.70;99.90
43143;DHT22;28750;59.842;17.584;2023-09-07T03:01:38;9.80;99.90
43143;DHT22;28750;59.842;17.584;2023-09-07T03:04:06;9.70;99.90
43143;DHT22;28750;59.842;17.584;2023-09-07T03:06:33;9.80;99.90
43143;DHT22;28750;59.842;17.584;2023-09-07T03:09:00;9.70;99.90
43143;DHT22;28750;59.842;17.584;2023-09-07T03:11:27;9.70;99.90
43143;DHT22;28750;59.842;17.584;2023-09-07T03:13:59;9.60;99.90
43143;DHT22;28750;59.842;17.584;2023-09-07T03:16:26;9.70;99.90
43143;DHT22;28750;59.842;17.584;2023-09-07T03:18:53;9.70;99.90
43143;DHT22;28750;59.842;17.584;2023-09-07T03:21:20;9.70;99.90
43143;DHT22;28750;59.842;17.584;2023-09-07T03:23:52;9.80;99.90
43143;DHT22;28750;59.842;17.584;2023-09-07T03:26:19;9.70;99.90
43143;DHT22;28750;59.842;17.584;2023-09-07T03:28:46;9.70;99.90
43143;DHT22;28750;59.842;17.584;2023-09-07T03:31:13;9.70;99.90
43143;DHT22;28750;59.842;17.584;2023-09-07T03:33:40;9.90;99.90
43143;DHT22;28750;59.842;17.584;2023-09-07T03:36:07;9.90;99.90
43143;DHT22;28750;59.842;17.584;2023-09-07T03:38:35;9.90;99.90
43143;DHT22;28750;59.842;17.584;2023-09-07T03:41:02;9.80;99.90
43143;DHT22;28750;59.842;17.584;2023-09-07T03:43:29;9.70;99.90
43143;DHT22;28750;59.842;17.584;2023-09-07T03:45:57;9.60;99.90
43143;DHT22;28750;59.842;17.584;2023-09-07T03:48:24;9.70;99.90
43143;DHT22;28750;59.842;17.584;2023-09-07T03:50:53;9.70;99.90
43143;DHT22;28750;59.842;17.584;2023-09-07T03:53:20;9.80;99.90
43143;DHT22;28750;59.842;17.584;2023-09-07T03:55:47;9.90;99.90
43143;DHT22;28750;59.842;17.584;2023-09-07T03:58:14;9.90;99.90
43143;DHT22;28750;59.842;17.584;2023-09-07T04:00:41;10.00;99.90
43143;DHT22;28750;59.842;17.584;2023-09-07T04:03:09;10.20;99.90
43143;DHT22;28750;59.842;17.584;2023-09-07T04:05:38;10.30;99.90
43143;DHT22;28750;59.842;17.584;2023-09-07T04:08:06;10.50;99.90
43143;DHT22;28750;59.842;17.584;2023-09-07T04:10:37;10.50;99.90
43143;DHT22;28750;59.842;17.584;2023-09-07T04:13:05;10.50;99.90
43143;DHT22;28750;59.842;17.584;2023-09-07T04:15:33;10.50;99.90
43143;DHT22;28750;59.842;17.584;2023-09-07T04:18:01;10.50;99.90
43143;DHT22;28750;59.842;17.584;2023-09-07T04:20:28;10.60;99.90
43143;DHT22;28750;59.842;17.584;2023-09-07T04:22:56;10.60;99.90
43143;DHT22;28750;59.842;17.584;2023-09-07T04:25:23;10.70;99.90
43143;DHT22;28750;59.842;17.584;2023-09-07T04:27:51;10.80;99.90
43143;DHT22;28750;59.842;17.584;2023-09-07T04:30:18;10.80;99.90
43143;DHT22;28750;59.842;17.584;2023-09-07T04:32:45;10.90;99.90
43143;DHT22;28750;59.842;17.584;2023-09-07T04:35:13;10.90;99.90
43143;DHT22;28750;59.842;17.584;2023-09-07T04:37:42;11.00;99.90
43143;DHT22;28750;59.842;17.584;2023-09-07T04:40:10;11.10;99.90
43143;DHT22;28750;59.842;17.584;2023-09-07T04:42:38;11.10;99.90
43143;DHT22;28750;59.842;17.584;2023-09-07T04:45:05;11.20;99.90
43143;DHT22;28750;59.842;17.584;2023-09-07T04:47:33;11.20;99.90
43143;DHT22;28750;59.842;17.584;2023-09-07T04:50:02;11.30;99.90
43143;DHT22;28750;59.842;17.584;2023-09-07T04:52:30;11.30;99.90
43143;DHT22;28750;59.842;17.584;2023-09-07T04:54:57;11.50;99.90
43143;DHT22;28750;59.842;17.584;2023-09-07T04:57:24;11.50;99.90
43143;DHT22;28750;59.842;17.584;2023-09-07T04:59:51;11.60;99.90
43143;DHT22;28750;59.842;17.584;2023-09-07T05:02:18;11.60;99.90
43143;DHT22;28750;59.842;17.584;2023-09-07T05:04:46;11.80;99.90
43143;DHT22;28750;59.842;17.584;2023-09-07T05:07:13;11.80;99.90
43143;DHT22;28750;59.842;17.584;2023-09-07T05:09:40;11.90;99.90
43143;DHT22;28750;59.842;17.584;2023-09-07T05:12:07;12.10;99.90
43143;DHT22;28750;59.842;17.584;2023-09-07T05:14:34;12.10;99.90
43143;DHT22;28750;59.842;17.584;2023-09-07T05:17:01;12.30;99.90
43143;DHT22;28750;59.842;17.584;2023-09-07T05:19:28;12.40;99.90
43143;DHT22;28750;59.842;17.584;2023-09-07T05:21:55;12.50;99.90
43143;DHT22;28750;59.842;17.584;2023-09-07T05:24:22;12.60;99.90
43143;DHT22;28750;59.842;17.584;2023-09-07T05:26:50;12.70;99.90
43143;DHT22;28750;59.842;17.584;2023-09-07T05:29:17;12.90;99.90
43143;DHT22;28750;59.842;17.584;2023-09-07T05:31:46;13.00;99.90
43143;DHT22;28750;59.842;17.584;2023-09-07T05:34:13;13.10;99.90
43143;DHT22;28750;59.842;17.584;2023-09-07T05:36:40;13.30;99.90
43143;DHT22;28750;59.842;17.584;2023-09-07T05:39:07;13.40;99.90
43143;DHT22;28750;59.842;17.584;2023-09-07T05:41:34;13.60;99.90
43143;DHT22;28750;59.842;17.584;2023-09-07T05:44:01;13.80;99.90
43143;DHT22;28750;59.842;17.584;2023-09-07T05:46:28;14.00;99.90
43143;DHT22;28750;59.842;17.584;2023-09-07T05:48:55;14.10;99.90
43143;DHT22;28750;59.842;17.584;2023-09-07T05:51:22;14.20;99.90
43143;DHT22;28750;59.842;17.584;2023-09-07T05:53:50;14.20;99.90
43143;DHT22;28750;59.842;17.584;2023-09-07T05:56:17;14.30;99.90
43143;DHT22;28750;59.842;17.584;2023-09-07T05:58:44;14.40;99.90
43143;DHT22;28750;59.842;17.584;2023-09-07T06:01:11;14.60;99.90
43143;DHT22;28750;59.842;17.584;2023-09-07T06:03:38;14.70;99.90
43143;DHT22;28750;59.842;17.584;2023-09-07T06:06:06;14.80;99.90
43143;DHT22;28750;59.842;17.584;2023-09-07T06:08:33;14.90;99.90
43143;DHT22;28750;59.842;17.584;2023-09-07T06:11:01;15.00;99.90
43143;DHT22;28750;59.842;17.584;2023-09-07T06:13:28;15.10;99.90
43143;DHT22;28750;59.842;17.584;2023-09-07T06:15:55;15.10;99.90
43143;DHT22;28750;59.842;17.584;2023-09-07T06:18:22;15.20;99.90
43143;DHT22;28750;59.842;17.584;2023-09-07T06:20:49;15.20;99.90
43143;DHT22;28750;59.842;17.584;2023-09-07T06:23:16;15.30;99.90
43143;DHT22;28750;59.842;17.584;2023-09-07T06:25:43;15.30;99.90
43143;DHT22;28750;59.842;17.584;2023-09-07T06:28:10;15.40;99.90
43143;DHT22;28750;59.842;17.584;2023-09-07T06:30:38;15.40;99.90
43143;DHT22;28750;59.842;17.584;2023-09-07T06:33:05;15.60;99.90
43143;DHT22;28750;59.842;17.584;2023-09-07T06:35:33;15.70;99.90
43143;DHT22;28750;59.842;17.584;2023-09-07T06:38:00;15.80;99.90
43143;DHT22;28750;59.842;17.584;2023-09-07T06:40:28;15.80;99.90
43143;DHT22;28750;59.842;17.584;2023-09-07T06:42:55;15.80;99.90
43143;DHT22;28750;59.842;17.584;2023-09-07T06:45:23;15.80;99.90
43143;DHT22;28750;59.842;17.584;2023-09-07T06:47:51;15.90;99.90
43143;DHT22;28750;59.842;17.584;2023-09-07T06:50:18;16.00;99.90
43143;DHT22;28750;59.842;17.584;2023-09-07T06:52:45;16.10;99.90
43143;DHT22;28750;59.842;17.584;2023-09-07T06:55:12;16.20;99.90
43143;DHT22;28750;59.842;17.584;2023-09-07T06:57:39;16.20;99.90
43143;DHT22;28750;59.842;17.584;2023-09-07T07:00:07;16.30;99.90
43143;DHT22;28750;59.842;17.584;2023-09-07T07:02:34;16.40;99.90
43143;DHT22;28750;59.842;17.584;2023-09-07T07:05:01;16.40;99.90
43143;DHT22;28750;59.842;17.584;2023-09-07T07:07:29;16.40;99.90
43143;DHT22;28750;59.842;17.584;2023-09-07T07:09:56;16.40;99.90
43143;DHT22;28750;59.842;17.584;2023-09-07T07:12:23;16.40;99.90
43143;DHT22;28750;59.842;17.584;2023-09-07T07:14:52;16.30;99.90
43143;DHT22;28750;59.842;17.584;2023-09-07T07:17:19;16.30;99.90
43143;DHT22;28750;59.842;17.584;2023-09-07T07:19:47;16.40;99.90
43143;DHT22;28750;59.842;17.584;2023-09-07T07:22:14;16.40;99.90
43143;DHT22;28750;59.842;17.584;2023-09-07T07:24:41;16.60;99.90
43143;DHT22;28750;59.842;17.584;2023-09-07T07:27:08;16.60;99.90
43143;DHT22;28750;59.842;17.584;2023-09-07T07:29:36;16.60;99.90
43143;DHT22;28750;59.842;17.584;2023-09-07T07:32:04;16.70;99.90
43143;DHT22;28750;59.842;17.584;2023-09-07T07:34:31;16.70;99.90
43143;DHT22;28750;59.842;17.584;2023-09-07T07:36:58;16.80;99.90
43143;DHT22;28750;59.842;17.584;2023-09-07T07:39:25;16.90;99.90
43143;DHT22;28750;59.842;17.584;2023-09-07T07:41:52;17.10;99.90
43143;DHT22;28750;59.842;17.584;2023-09-07T07:44:20;17.10;99.90
43143;DHT22;28750;59.842;17.584;2023-09-07T07:46:47;16.90;99.90
43143;DHT22;28750;59.842;17.584;2023-09-07T07:49:14;17.10;99.90
43143;DHT22;28750;59.842;17.584;2023-09-07T07:51:41;17.20;99.90
43143;DHT22;28750;59.842;17.584;2023-09-07T07:54:09;17.20;99.90
43143;DHT22;28750;59.842;17.584;2023-09-07T07:56:38;17.30;99.90
43143;DHT22;28750;59.842;17.584;2023-09-07T07:59:05;17.40;99.90
43143;DHT22;28750;59.842;17.584;2023-09-07T08:01:32;17.50;99.90
43143;DHT22;28750;59.842;17.584;2023-09-07T08:03:59;17.60;99.90
43143;DHT22;28750;59.842;17.584;2023-09-07T08:06:26;17.60;99.90
43143;DHT22;28750;59.842;17.584;2023-09-07T08:08:53;17.90;99.90
43143;DHT22;28750;59.842;17.584;2023-09-07T08:11:21;17.90;99.90
43143;DHT22;28750;59.842;17.584;2023-09-07T08:13:48;18.00;99.90
43143;DHT22;28750;59.842;17.584;2023-09-07T08:16:15;18.10;99.90
43143;DHT22;28750;59.842;17.584;2023-09-07T08:18:43;18.20;99.90
43143;DHT22;28750;59.842;17.584;2023-09-07T08:21:11;18.30;99.90
43143;DHT22;28750;59.842;17.584;2023-09-07T08:23:39;18.30;99.90
43143;DHT22;28750;59.842;17.584;2023-09-07T08:26:06;18.50;99.90
43143;DHT22;28750;59.842;17.584;2023-09-07T08:28:35;18.50;99.90
43143;DHT22;28750;59.842;17.584;2023-09-07T08:31:02;18.40;99.90
43143;DHT22;28750;59.842;17.584;2023-09-07T08:33:31;18.40;99.90
43143;DHT22;28750;59.842;17.584;2023-09-07T08:36:01;18.30;1.00
43143;DHT22;28750;59.842;17.584;2023-09-07T08:38:29;18.40;99.90
43143;DHT22;28750;59.842;17.584;2023-09-07T08:41:01;18.40;99.90
43143;DHT22;28750;59.842;17.584;2023-09-07T08:43:33;18.50;68.80
43143;DHT22;28750;59.842;17.584;2023-09-07T08:46:15;18.50;99.90
43143;DHT22;28750;59.842;17.584;2023-09-07T08:48:42;18.70;1.00
43143;DHT22;28750;59.842;17.584;2023-09-07T08:51:12;18.70;99.90
43143;DHT22;28750;59.842;17.584;2023-09-07T08:53:40;18.70;99.90
43143;DHT22;28750;59.842;17.584;2023-09-07T08:56:14;18.80;93.50
43143;DHT22;28750;59.842;17.584;2023-09-07T08:58:43;18.80;1.00
43143;DHT22;28750;59.842;17.584;2023-09-07T09:01:11;18.80;1.00
43143;DHT22;28750;59.842;17.584;2023-09-07T09:03:38;19.00;1.00
43143;DHT22;28750;59.842;17.584;2023-09-07T09:06:05;19.20;49.10
43143;DHT22;28750;59.842;17.584;2023-09-07T09:08:46;19.20;99.90
43143;DHT22;28750;59.842;17.584;2023-09-07T09:11:14;19.40;99.90
43143;DHT22;28750;59.842;17.584;2023-09-07T09:13:42;19.50;99.90
43143;DHT22;28750;59.842;17.584;2023-09-07T09:16:10;19.50;1.10
43143;DHT22;28750;59.842;17.584;2023-09-07T09:18:46;19.60;99.90
43143;DHT22;28750;59.842;17.584;2023-09-07T09:21:14;19.50;99.90
43143;DHT22;28750;59.842;17.584;2023-09-07T09:23:41;19.60;1.00
43143;DHT22;28750;59.842;17.584;2023-09-07T09:26:08;19.50;99.90
43143;DHT22;28750;59.842;17.584;2023-09-07T09:28:35;19.60;99.90
43143;DHT22;28750;59.842;17.584;2023-09-07T09:31:03;19.70;99.90
43143;DHT22;28750;59.842;17.584;2023-09-07T09:33:31;19.90;1.00
43143;DHT22;28750;59.842;17.584;2023-09-07T09:35:58;19.80;99.90
43143;DHT22;28750;59.842;17.584;2023-09-07T09:38:26;19.80;1.00
43143;DHT22;28750;59.842;17.584;2023-09-07T09:40:53;19.90;1.00
43143;DHT22;28750;59.842;17.584;2023-09-07T09:43:21;19.90;99.90
43143;DHT22;28750;59.842;17.584;2023-09-07T09:45:49;20.10;99.90
43143;DHT22;28750;59.842;17.584;2023-09-07T09:48:19;20.30;99.90
43143;DHT22;28750;59.842;17.584;2023-09-07T09:50:47;20.50;1.00
43143;DHT22;28750;59.842;17.584;2023-09-07T09:53:17;20.40;99.90
43143;DHT22;28750;59.842;17.584;2023-09-07T09:55:49;20.40;69.10
43143;DHT22;28750;59.842;17.584;2023-09-07T09:58:18;20.30;99.90
43143;DHT22;28750;59.842;17.584;2023-09-07T10:00:47;20.90;1.00
43143;DHT22;28750;59.842;17.584;2023-09-07T10:03:16;21.10;1.00
43143;DHT22;28750;59.842;17.584;2023-09-07T10:05:45;21.20;1.00
43143;DHT22;28750;59.842;17.584;2023-09-07T10:08:14;21.30;63.70
43143;DHT22;28750;59.842;17.584;2023-09-07T10:10:43;21.70;91.90
43143;DHT22;28750;59.842;17.584;2023-09-07T10:13:14;21.90;1.00
43143;DHT22;28750;59.842;17.584;2023-09-07T10:15:42;21.40;1.00
43143;DHT22;28750;59.842;17.584;2023-09-07T10:18:14;21.70;99.90
43143;DHT22;28750;59.842;17.584;2023-09-07T10:20:55;21.30;1.00
43143;DHT22;28750;59.842;17.584;2023-09-07T10:23:39;21.30;18.80
43143;DHT22;28750;59.842;17.584;2023-09-07T10:26:15;21.00;88.90
43143;DHT22;28750;59.842;17.584;2023-09-07T10:28:45;20.70;99.90
43143;DHT22;28750;59.842;17.584;2023-09-07T10:31:17;20.50;1.00
43143;DHT22;28750;59.842;17.584;2023-09-07T10:33:46;20.70;1.00
43143;DHT22;28750;59.842;17.584;2023-09-07T10:36:25;20.60;99.90
43143;DHT22;28750;59.842;17.584;2023-09-07T10:38:54;20.50;99.90
43143;DHT22;28750;59.842;17.584;2023-09-07T10:41:22;20.70;99.90
43143;DHT22;28750;59.842;17.584;2023-09-07T10:43:54;20.70;1.00
43143;DHT22;28750;59.842;17.584;2023-09-07T10:46:22;20.60;99.90
43143;DHT22;28750;59.842;17.584;2023-09-07T10:48:51;20.70;48.80
43143;DHT22;28750;59.842;17.584;2023-09-07T10:51:19;20.80;98.80
43143;DHT22;28750;59.842;17.584;2023-09-07T10:53:46;21.00;7.50
43143;DHT22;28750;59.842;17.584;2023-09-07T10:56:14;20.90;1.00
43143;DHT22;28750;59.842;17.584;2023-09-07T10:58:41;21.10;1.00
43143;DHT22;28750;59.842;17.584;2023-09-07T11:01:09;21.30;99.90
43143;DHT22;28750;59.842;17.584;2023-09-07T11:03:37;21.00;99.90
43143;DHT22;28750;59.842;17.584;2023-09-07T11:06:16;21.10;99.90
43143;DHT22;28750;59.842;17.584;2023-09-07T11:08:46;21.40;1.00
43143;DHT22;28750;59.842;17.584;2023-09-07T11:11:13;21.40;99.90
43143;DHT22;28750;59.842;17.584;2023-09-07T11:13:40;21.30;99.90
43143;DHT22;28750;59.842;17.584;2023-09-07T11:16:09;21.10;1.00
43143;DHT22;28750;59.842;17.584;2023-09-07T11:18:36;20.90;99.90
43143;DHT22;28750;59.842;17.584;2023-09-07T11:21:03;20.80;99.90
43143;DHT22;28750;59.842;17.584;2023-09-07T11:23:33;20.70;1.00
43143;DHT22;28750;59.842;17.584;2023-09-07T11:26:04;20.60;23.50
43143;DHT22;28750;59.842;17.584;2023-09-07T11:28:31;20.60;93.50
43143;DHT22;28750;59.842;17.584;2023-09-07T11:30:59;20.70;99.90
43143;DHT22;28750;59.842;17.584;2023-09-07T11:33:26;20.70;99.90
43143;DHT22;28750;59.842;17.584;2023-09-07T11:35:54;20.40;99.90
43143;DHT22;28750;59.842;17.584;2023-09-07T11:38:21;20.40;99.90
43143;DHT22;28750;59.842;17.584;2023-09-07T11:40:49;20.30;99.90
43143;DHT22;28750;59.842;17.584;2023-09-07T11:43:17;20.50;1.00
43143;DHT22;28750;59.842;17.584;2023-09-07T11:45:46;20.60;99.90
43143;DHT22;28750;59.842;17.584;2023-09-07T11:48:13;20.60;99.90
43143;DHT22;28750;59.842;17.584;2023-09-07T11:50:40;20.80;99.90
43143;DHT22;28750;59.842;17.584;2023-09-07T11:53:08;20.80;99.90
43143;DHT22;28750;59.842;17.584;2023-09-07T11:55:35;20.60;99.90
43143;DHT22;28750;59.842;17.584;2023-09-07T11:58:04;20.40;99.90
43143;DHT22;28750;59.842;17.584;2023-09-07T12:00:31;20.50;1.00
43143;DHT22;28750;59.842;17.584;2023-09-07T12:02:59;20.50;99.90
43143;DHT22;28750;59.842;17.584;2023-09-07T12:05:26;20.50;1.00
43143;DHT22;28750;59.842;17.584;2023-09-07T12:07:53;20.40;99.90
43143;DHT22;28750;59.842;17.584;2023-09-07T12:10:20;20.20;32.50
43143;DHT22;28750;59.842;17.584;2023-09-07T12:12:48;20.20;1.00
43143;DHT22;28750;59.842;17.584;2023-09-07T12:15:15;20.00;58.80
43143;DHT22;28750;59.842;17.584;2023-09-07T12:17:42;20.10;99.90
43143;DHT22;28750;59.842;17.584;2023-09-07T12:20:09;20.10;99.90
43143;DHT22;28750;59.842;17.584;2023-09-07T12:22:38;20.00;99.90
43143;DHT22;28750;59.842;17.584;2023-09-07T12:25:06;20.10;99.90
43143;DHT22;28750;59.842;17.584;2023-09-07T12:27:36;20.10;99.90
43143;DHT22;28750;59.842;17.584;2023-09-07T12:30:04;20.30;99.90
43143;DHT22;28750;59.842;17.584;2023-09-07T12:32:37;20.60;1.00
43143;DHT22;28750;59.842;17.584;2023-09-07T12:35:04;20.90;1.00
43143;DHT22;28750;59.842;17.584;2023-09-07T12:37:37;20.90;99.90
43143;DHT22;28750;59.842;17.584;2023-09-07T12:40:04;21.10;1.00
43143;DHT22;28750;59.842;17.584;2023-09-07T12:42:41;21.40;99.90
43143;DHT22;28750;59.842;17.584;2023-09-07T12:45:09;21.20;99.90
43143;DHT22;28750;59.842;17.584;2023-09-07T12:47:38;20.80;99.90
43143;DHT22;28750;59.842;17.584;2023-09-07T12:50:05;20.80;1.00
43143;DHT22;28750;59.842;17.584;2023-09-07T12:52:34;20.90;1.00
43143;DHT22;28750;59.842;17.584;2023-09-07T12:55:04;20.90;1.00
43143;DHT22;28750;59.842;17.584;2023-09-07T12:57:31;20.60;1.00
43143;DHT22;28750;59.842;17.584;2023-09-07T12:59:59;20.50;1.00
43143;DHT22;28750;59.842;17.584;2023-09-07T13:02:26;20.70;43.10
43143;DHT22;28750;59.842;17.584;2023-09-07T13:04:54;20.50;1.00
43143;DHT22;28750;59.842;17.584;2023-09-07T13:07:22;20.60;90.60
43143;DHT22;28750;59.842;17.584;2023-09-07T13:09:49;21.00;99.90
43143;DHT22;28750;59.842;17.584;2023-09-07T13:12:16;21.20;1.00
43143;DHT22;28750;59.842;17.584;2023-09-07T13:14:43;21.20;99.90
43143;DHT22;28750;59.842;17.584;2023-09-07T13:17:13;20.80;99.90
43143;DHT22;28750;59.842;17.584;2023-09-07T13:19:41;21.10;99.90
43143;DHT22;28750;59.842;17.584;2023-09-07T13:22:09;21.20;99.90
43143;DHT22;28750;59.842;17.584;2023-09-07T13:24:36;20.90;99.90
43143;DHT22;28750;59.842;17.584;2023-09-07T13:27:03;20.80;99.90
43143;DHT22;28750;59.842;17.584;2023-09-07T13:29:33;21.00;99.90
43143;DHT22;28750;59.842;17.584;2023-09-07T13:32:00;20.90;99.90
43143;DHT22;28750;59.842;17.584;2023-09-07T13:34:28;21.10;1.00
43143;DHT22;28750;59.842;17.584;2023-09-07T13:36:55;20.90;99.90
43143;DHT22;28750;59.842;17.584;2023-09-07T13:39:23;21.10;99.90
43143;DHT22;28750;59.842;17.584;2023-09-07T13:41:50;21.20;1.00
43143;DHT22;28750;59.842;17.584;2023-09-07T13:44:17;21.40;99.90
43143;DHT22;28750;59.842;17.584;2023-09-07T13:46:45;21.30;99.90
43143;DHT22;28750;59.842;17.584;2023-09-07T13:49:12;21.40;99.90
43143;DHT22;28750;59.842;17.584;2023-09-07T13:51:42;21.40;99.90
43143;DHT22;28750;59.842;17.584;2023-09-07T13:54:10;20.90;99.90
43143;DHT22;28750;59.842;17.584;2023-09-07T13:56:37;20.90;99.90
43143;DHT22;28750;59.842;17.584;2023-09-07T13:59:04;21.10;99.90
43143;DHT22;28750;59.842;17.584;2023-09-07T14:01:31;20.90;99.90
43143;DHT22;28750;59.842;17.584;2023-09-07T14:03:58;20.90;99.90
43143;DHT22;28750;59.842;17.584;2023-09-07T14:06:25;20.80;99.90
43143;DHT22;28750;59.842;17.584;2023-09-07T14:08:52;20.60;99.90
43143;DHT22;28750;59.842;17.584;2023-09-07T14:11:20;20.40;99.90
43143;DHT22;28750;59.842;17.584;2023-09-07T14:13:48;20.50;1.00
43143;DHT22;28750;59.842;17.584;2023-09-07T14:16:19;20.50;99.90
43143;DHT22;28750;59.842;17.584;2023-09-07T14:18:47;20.60;90.30
43143;DHT22;28750;59.842;17.584;2023-09-07T14:21:16;20.70;99.90
43143;DHT22;28750;59.842;17.584;2023-09-07T14:23:44;20.50;99.90
43143;DHT22;28750;59.842;17.584;2023-09-07T14:26:11;20.50;99.90
43143;DHT22;28750;59.842;17.584;2023-09-07T14:28:38;20.50;99.90
43143;DHT22;28750;59.842;17.584;2023-09-07T14:31:06;20.60;1.00
43143;DHT22;28750;59.842;17.584;2023-09-07T14:33:34;20.50;99.90
43143;DHT22;28750;59.842;17.584;2023-09-07T14:36:07;20.50;99.90
43143;DHT22;28750;59.842;17.584;2023-09-07T14:38:37;20.50;1.00
43143;DHT22;28750;59.842;17.584;2023-09-07T14:41:07;20.50;1.00
43143;DHT22;28750;59.842;17.584;2023-09-07T14:43:37;20.40;1.00
43143;DHT22;28750;59.842;17.584;2023-09-07T14:46:04;20.40;1.00
43143;DHT22;28750;59.842;17.584;2023-09-07T14:48:31;20.50;99.90
43143;DHT22;28750;59.842;17.584;2023-09-07T14:50:58;20.40;1.00
43143;DHT22;28750;59.842;17.584;2023-09-07T14:53:25;20.40;99.90
43143;DHT22;28750;59.842;17.584;2023-09-07T14:55:52;20.40;99.90
43143;DHT22;28750;59.842;17.584;2023-09-07T14:58:19;20.50;99.90
43143;DHT22;28750;59.842;17.584;2023-09-07T15:00:46;20.30;99.90
43143;DHT22;28750;59.842;17.584;2023-09-07T15:03:13;20.30;99.90
43143;DHT22;28750;59.842;17.584;2023-09-07T15:05:41;20.30;99.90
43143;DHT22;28750;59.842;17.584;2023-09-07T15:08:08;20.10;99.90
43143;DHT22;28750;59.842;17.584;2023-09-07T15:10:35;20.30;99.90
43143;DHT22;28750;59.842;17.584;2023-09-07T15:13:02;20.20;1.00
43143;DHT22;28750;59.842;17.584;2023-09-07T15:15:30;20.20;1.00
43143;DHT22;28750;59.842;17.584;2023-09-07T15:18:02;20.10;88.60
43143;DHT22;28750;59.842;17.584;2023-09-07T15:20:29;20.20;90.90
43143;DHT22;28750;59.842;17.584;2023-09-07T15:22:57;20.30;99.90
43143;DHT22;28750;59.842;17.584;2023-09-07T15:25:24;20.30;1.00